sensor_id;sensor_type;location;lat;lon;timestamp;pressure;altitude;pressure_sealevel;temperature;humidity
7474;BME280;3778;42.572;23.426;2022-08-19T00:02:00;71554.47;;;-146.70;57.81
7474;BME280;3778;42.572;23.426;2022-08-19T00:04:29;71562.75;;;-146.70;58.02
7474;BME280;3778;42.572;23.426;2022-08-19T00:06:57;71566.91;;;-146.70;58.32
7474;BME280;3778;42.572;23.426;2022-08-19T00:09:24;71571.03;;;-146.70;58.66
7474;BME280;3778;42.572;23.426;2022-08-19T00:11:52;71573.13;;;-146.70;58.80
7474;BME280;3778;42.572;23.426;2022-08-19T00:14:21;71573.13;;;-146.70;58.69
7474;BME280;3778;42.572;23.426;2022-08-19T00:16:48;71575.19;;;-146.70;58.57
7474;BME280;3778;42.572;23.426;2022-08-19T00:19:18;71583.47;;;-146.70;59.09
7474;BME280;3778;42.572;23.426;2022-08-19T00:21:45;71587.63;;;-146.70;59.17
7474;BME280;3778;42.572;23.426;2022-08-19T00:24:13;71589.69;;;-146.70;59.42
7474;BME280;3778;42.572;23.426;2022-08-19T00:26:41;71606.25;;;-146.70;59.67
7474;BME280;3778;42.572;23.426;2022-08-19T00:29:10;71612.47;;;-146.70;59.84
7474;BME280;3778;42.572;23.426;2022-08-19T00:31:37;71616.63;;;-146.70;60.05
7474;BME280;3778;42.572;23.426;2022-08-19T00:34:04;71618.69;;;-146.70;60.20
7474;BME280;3778;42.572;23.426;2022-08-19T00:36:32;71629.06;;;-146.70;60.50
7474;BME280;3778;42.572;23.426;2022-08-19T00:38:59;71624.91;;;-146.70;60.41
7474;BME280;3778;42.572;23.426;2022-08-19T00:41:27;71620.78;;;-146.70;60.08
7474;BME280;3778;42.572;23.426;2022-08-19T00:44:00;71612.47;;;-146.70;59.44
7474;BME280;3778;42.572;23.426;2022-08-19T00:46:27;71604.19;;;-146.70;59.11
7474;BME280;3778;42.572;23.426;2022-08-19T00:48:55;71606.25;;;-146.70;59.41
7474;BME280;3778;42.572;23.426;2022-08-19T00:51:22;71610.41;;;-146.70;59.80
7474;BME280;3778;42.572;23.426;2022-08-19T00:53:52;71624.91;;;-146.70;60.42
7474;BME280;3778;42.572;23.426;2022-08-19T00:56:19;71633.19;;;-146.70;60.68
7474;BME280;3778;42.572;23.426;2022-08-19T00:58:46;71633.19;;;-146.70;60.73
7474;BME280;3778;42.572;23.426;2022-08-19T01:01:13;71635.28;;;-146.70;61.17
7474;BME280;3778;42.572;23.426;2022-08-19T01:03:40;71635.28;;;-146.70;60.89
7474;BME280;3778;42.572;23.426;2022-08-19T01:06:07;71635.28;;;-146.70;60.92
7474;BME280;3778;42.572;23.426;2022-08-19T01:08:34;71637.34;;;-146.70;61.13
7474;BME280;3778;42.572;23.426;2022-08-19T01:11:02;71641.50;;;-146.70;61.24
7474;BME280;3778;42.572;23.426;2022-08-19T01:13:31;71641.50;;;-146.70;61.09
7474;BME280;3778;42.572;23.426;2022-08-19T01:16:02;71637.34;;;-146.70;60.59
7474;BME280;3778;42.572;23.426;2022-08-19T01:18:30;71629.06;;;-146.70;60.43
7474;BME280;3778;42.572;23.426;2022-08-19T01:21:08;71635.28;;;-146.70;60.90
7474;BME280;3778;42.572;23.426;2022-08-19T01:23:37;71637.34;;;-146.70;60.89
7474;BME280;3778;42.572;23.426;2022-08-19T01:26:12;71639.41;;;-146.70;61.27
7474;BME280;3778;42.572;23.426;2022-08-19T01:28:40;71641.50;;;-146.70;61.06
7474;BME280;3778;42.572;23.426;2022-08-19T01:31:09;71645.63;;;-146.70;61.41
7474;BME280;3778;42.572;23.426;2022-08-19T01:33:37;71645.63;;;-146.70;61.30
7474;BME280;3778;42.572;23.426;2022-08-19T01:36:06;71649.78;;;-146.70;61.35
7474;BME280;3778;42.572;23.426;2022-08-19T01:38:39;71660.13;;;-146.70;61.92
7474;BME280;3778;42.572;23.426;2022-08-19T01:41:06;71666.34;;;-146.70;62.00
7474;BME280;3778;42.572;23.426;2022-08-19T01:43:33;71662.22;;;-146.70;61.88
7474;BME280;3778;42.572;23.426;2022-08-19T01:46:00;71662.22;;;-146.70;62.35
7474;BME280;3778;42.572;23.426;2022-08-19T01:48:33;71666.34;;;-146.70;62.28
7474;BME280;3778;42.572;23.426;2022-08-19T01:51:00;71672.56;;;-146.70;62.14
7474;BME280;3778;42.572;23.426;2022-08-19T01:53:27;71666.34;;;-146.70;61.61
7474;BME280;3778;42.572;23.426;2022-08-19T01:55:55;71672.56;;;-146.70;61.79
7474;BME280;3778;42.572;23.426;2022-08-19T01:58:24;71668.44;;;-146.70;61.89
7474;BME280;3778;42.572;23.426;2022-08-19T02:00:54;71674.66;;;-146.70;62.13
7474;BME280;3778;42.572;23.426;2022-08-19T02:03:21;71687.06;;;-146.70;62.61
7474;BME280;3778;42.572;23.426;2022-08-19T02:05:54;71705.72;;;-146.70;63.29
7474;BME280;3778;42.572;23.426;2022-08-19T02:08:21;71714.00;;;-146.70;63.44
7474;BME280;3778;42.572;23.426;2022-08-19T02:10:48;71711.94;;;-146.70;63.53
7474;BME280;3778;42.572;23.426;2022-08-19T02:13:17;71714.00;;;-146.70;63.49
7474;BME280;3778;42.572;23.426;2022-08-19T02:15:44;71709.88;;;-146.70;63.60
7474;BME280;3778;42.572;23.426;2022-08-19T02:18:11;71711.94;;;-146.70;63.31
7474;BME280;3778;42.572;23.426;2022-08-19T02:20:40;71699.50;;;-146.70;63.14
7474;BME280;3778;42.572;23.426;2022-08-19T02:23:07;71705.72;;;-146.70;63.05
7474;BME280;3778;42.572;23.426;2022-08-19T02:25:34;71699.50;;;-146.70;63.29
7474;BME280;3778;42.572;23.426;2022-08-19T02:28:00;71707.78;;;-146.70;63.31
7474;BME280;3778;42.572;23.426;2022-08-19T02:30:29;71718.16;;;-146.70;63.72
7474;BME280;3778;42.572;23.426;2022-08-19T02:32:56;71722.31;;;-146.70;63.94
7474;BME280;3778;42.572;23.426;2022-08-19T02:35:23;71738.88;;;-146.70;64.59
7474;BME280;3778;42.572;23.426;2022-08-19T02:37:50;71747.16;;;-146.70;64.94
7474;BME280;3778;42.572;23.426;2022-08-19T02:40:34;71743.03;;;-146.70;65.22
7474;BME280;3778;42.572;23.426;2022-08-19T02:43:03;71755.47;;;-146.70;65.43
7474;BME280;3778;42.572;23.426;2022-08-19T02:45:33;71761.66;;;-146.70;65.79
7474;BME280;3778;42.572;23.426;2022-08-19T02:48:02;71765.81;;;-146.70;65.89
7474;BME280;3778;42.572;23.426;2022-08-19T02:50:30;71765.81;;;-146.70;65.81
7474;BME280;3778;42.572;23.426;2022-08-19T02:52:56;71767.88;;;-146.70;65.95
7474;BME280;3778;42.572;23.426;2022-08-19T02:55:23;71751.31;;;-146.70;65.79
7474;BME280;3778;42.572;23.426;2022-08-19T02:57:50;71753.38;;;-146.70;65.64
7474;BME280;3778;42.572;23.426;2022-08-19T03:00:17;71753.38;;;-146.70;65.49
7474;BME280;3778;42.572;23.426;2022-08-19T03:02:45;71753.38;;;-146.70;65.48
7474;BME280;3778;42.572;23.426;2022-08-19T03:05:14;71753.38;;;-146.70;65.55
7474;BME280;3778;42.572;23.426;2022-08-19T03:07:40;71747.16;;;-146.70;65.03
7474;BME280;3778;42.572;23.426;2022-08-19T03:10:07;71749.25;;;-146.70;65.17
7474;BME280;3778;42.572;23.426;2022-08-19T03:12:36;71740.94;;;-146.70;65.02
7474;BME280;3778;42.572;23.426;2022-08-19T03:15:03;71740.94;;;-146.70;64.95
7474;BME280;3778;42.572;23.426;2022-08-19T03:17:31;71740.94;;;-146.70;64.86
7474;BME280;3778;42.572;23.426;2022-08-19T03:19:59;71743.03;;;-146.70;65.30
7474;BME280;3778;42.572;23.426;2022-08-19T03:22:26;71747.16;;;-146.70;65.30
7474;BME280;3778;42.572;23.426;2022-08-19T03:24:54;71749.25;;;-146.70;65.45
7474;BME280;3778;42.572;23.426;2022-08-19T03:27:20;71740.94;;;-146.70;65.51
7474;BME280;3778;42.572;23.426;2022-08-19T03:29:47;71749.25;;;-146.70;65.72
7474;BME280;3778;42.572;23.426;2022-08-19T03:32:14;71761.66;;;-146.70;66.00
7474;BME280;3778;42.572;23.426;2022-08-19T03:34:41;71765.81;;;-146.70;66.11
7474;BME280;3778;42.572;23.426;2022-08-19T03:37:10;71765.81;;;-146.70;66.18
7474;BME280;3778;42.572;23.426;2022-08-19T03:39:39;71765.81;;;-146.70;66.05
7474;BME280;3778;42.572;23.426;2022-08-19T03:42:08;71767.88;;;-146.70;66.16
7474;BME280;3778;42.572;23.426;2022-08-19T03:44:35;71769.97;;;-146.70;66.39
7474;BME280;3778;42.572;23.426;2022-08-19T03:47:03;71772.03;;;-146.70;66.35
7474;BME280;3778;42.572;23.426;2022-08-19T03:49:32;71778.25;;;-146.70;66.49
7474;BME280;3778;42.572;23.426;2022-08-19T03:52:01;71774.09;;;-146.70;66.25
7474;BME280;3778;42.572;23.426;2022-08-19T03:54:31;71778.25;;;-146.70;66.02
7474;BME280;3778;42.572;23.426;2022-08-19T03:56:58;71782.41;;;-146.70;66.43
7474;BME280;3778;42.572;23.426;2022-08-19T03:59:26;71790.69;;;-146.70;66.71
7474;BME280;3778;42.572;23.426;2022-08-19T04:01:54;71794.81;;;-146.70;66.73
7474;BME280;3778;42.572;23.426;2022-08-19T04:04:22;71792.75;;;-146.70;66.85
7474;BME280;3778;42.572;23.426;2022-08-19T04:06:49;71796.91;;;-146.70;67.00
7474;BME280;3778;42.572;23.426;2022-08-19T04:09:18;71794.81;;;-146.70;67.00
7474;BME280;3778;42.572;23.426;2022-08-19T04:11:48;71801.03;;;-146.70;66.94
7474;BME280;3778;42.572;23.426;2022-08-19T04:14:17;71790.69;;;-146.70;66.67
7474;BME280;3778;42.572;23.426;2022-08-19T04:16:45;71790.69;;;-146.70;66.67
7474;BME280;3778;42.572;23.426;2022-08-19T04:19:13;71790.69;;;-146.70;66.71
7474;BME280;3778;42.572;23.426;2022-08-19T04:21:43;71790.69;;;-146.70;66.64
7474;BME280;3778;42.572;23.426;2022-08-19T04:24:11;71796.91;;;-146.70;66.51
7474;BME280;3778;42.572;23.426;2022-08-19T04:26:38;71792.75;;;-146.70;66.43
7474;BME280;3778;42.572;23.426;2022-08-19T04:29:08;71784.47;;;-146.70;66.10
7474;BME280;3778;42.572;23.426;2022-08-19T04:31:35;71776.19;;;-146.70;65.92
7474;BME280;3778;42.572;23.426;2022-08-19T04:34:03;71763.75;;;-146.70;65.42
7474;BME280;3778;42.572;23.426;2022-08-19T04:36:33;71763.75;;;-146.70;65.51
7474;BME280;3778;42.572;23.426;2022-08-19T04:39:03;71763.75;;;-146.70;65.30
7474;BME280;3778;42.572;23.426;2022-08-19T04:41:30;71759.59;;;-146.70;65.21
7474;BME280;3778;42.572;23.426;2022-08-19T04:44:15;71749.25;;;-146.70;65.37
7474;BME280;3778;42.572;23.426;2022-08-19T04:46:44;71749.25;;;-146.70;65.28
7474;BME280;3778;42.572;23.426;2022-08-19T04:49:11;71745.09;;;-146.70;65.30
7474;BME280;3778;42.572;23.426;2022-08-19T04:51:40;71736.81;;;-146.70;65.16
7474;BME280;3778;42.572;23.426;2022-08-19T04:54:07;71728.53;;;-146.70;65.08
7474;BME280;3778;42.572;23.426;2022-08-19T04:56:34;71720.22;;;-146.70;64.88
7474;BME280;3778;42.572;23.426;2022-08-19T04:59:01;71714.00;;;-146.70;64.76
7474;BME280;3778;42.572;23.426;2022-08-19T05:01:32;71705.72;;;-146.70;64.35
7474;BME280;3778;42.572;23.426;2022-08-19T05:04:00;71689.16;;;-146.70;63.92
7474;BME280;3778;42.572;23.426;2022-08-19T05:06:30;71682.94;;;-146.70;63.78
7474;BME280;3778;42.572;23.426;2022-08-19T05:08:59;71672.56;;;-146.70;63.47
7474;BME280;3778;42.572;23.426;2022-08-19T05:11:27;71658.06;;;-146.70;63.21
7474;BME280;3778;42.572;23.426;2022-08-19T05:13:55;71656.00;;;-146.70;63.11
7474;BME280;3778;42.572;23.426;2022-08-19T05:16:24;71645.63;;;-146.70;62.85
7474;BME280;3778;42.572;23.426;2022-08-19T05:18:52;71635.28;;;-146.70;62.64
7474;BME280;3778;42.572;23.426;2022-08-19T05:21:38;71635.28;;;-146.70;62.55
7474;BME280;3778;42.572;23.426;2022-08-19T05:24:23;71618.69;;;-146.70;62.34
7474;BME280;3778;42.572;23.426;2022-08-19T05:26:51;71614.56;;;-146.70;62.38
7474;BME280;3778;42.572;23.426;2022-08-19T05:29:23;71600.06;;;-146.70;62.02
7474;BME280;3778;42.572;23.426;2022-08-19T05:31:50;71579.31;;;-146.70;61.44
7474;BME280;3778;42.572;23.426;2022-08-19T05:34:20;71568.97;;;-146.70;61.31
7474;BME280;3778;42.572;23.426;2022-08-19T05:36:48;71560.69;;;-146.70;60.99
7474;BME280;3778;42.572;23.426;2022-08-19T05:39:19;71554.47;;;-146.70;60.86
7474;BME280;3778;42.572;23.426;2022-08-19T05:41:48;71544.09;;;-146.70;60.55
7474;BME280;3778;42.572;23.426;2022-08-19T05:44:16;71542.03;;;-146.70;60.54
7474;BME280;3778;42.572;23.426;2022-08-19T05:46:43;71531.66;;;-146.70;60.30
7474;BME280;3778;42.572;23.426;2022-08-19T05:49:13;71525.47;;;-146.70;60.24
7474;BME280;3778;42.572;23.426;2022-08-19T05:51:42;71517.16;;;-146.70;59.92
7474;BME280;3778;42.572;23.426;2022-08-19T05:54:09;71498.53;;;-146.70;59.93
7474;BME280;3778;42.572;23.426;2022-08-19T05:56:38;71486.09;;;-146.70;59.48
7474;BME280;3778;42.572;23.426;2022-08-19T05:59:06;71477.81;;;-146.70;59.74
7474;BME280;3778;42.572;23.426;2022-08-19T06:01:36;71463.28;;;-146.70;58.78
7474;BME280;3778;42.572;23.426;2022-08-19T06:04:04;71450.88;;;-146.70;59.07
7474;BME280;3778;42.572;23.426;2022-08-19T06:06:31;71446.72;;;-146.70;58.28
7474;BME280;3778;42.572;23.426;2022-08-19T06:09:01;71432.22;;;-146.70;58.37
7474;BME280;3778;42.572;23.426;2022-08-19T06:11:34;71421.84;;;-146.70;58.40
7474;BME280;3778;42.572;23.426;2022-08-19T06:14:03;71411.50;;;-146.70;57.98
7474;BME280;3778;42.572;23.426;2022-08-19T06:16:30;71403.22;;;-146.70;57.72
7474;BME280;3778;42.572;23.426;2022-08-19T06:19:01;71388.69;;;-146.70;57.43
7474;BME280;3778;42.572;23.426;2022-08-19T06:21:29;71380.41;;;-146.70;56.96
7474;BME280;3778;42.572;23.426;2022-08-19T06:23:57;71376.28;;;-146.70;56.88
7474;BME280;3778;42.572;23.426;2022-08-19T06:26:25;71357.63;;;-146.70;56.47
7474;BME280;3778;42.572;23.426;2022-08-19T06:28:53;71334.84;;;-146.70;56.26
7474;BME280;3778;42.572;23.426;2022-08-19T06:31:25;71320.34;;;-146.70;55.94
7474;BME280;3778;42.572;23.426;2022-08-19T06:33:52;71309.97;;;-146.70;55.60
7474;BME280;3778;42.572;23.426;2022-08-19T06:36:21;71293.41;;;-146.70;55.37
7474;BME280;3778;42.572;23.426;2022-08-19T06:38:53;71285.09;;;-146.70;54.53
7474;BME280;3778;42.572;23.426;2022-08-19T06:41:20;71268.53;;;-146.70;54.67
7474;BME280;3778;42.572;23.426;2022-08-19T06:43:48;71258.16;;;-146.70;54.56
7474;BME280;3778;42.572;23.426;2022-08-19T06:46:16;71247.81;;;-146.70;53.75
7474;BME280;3778;42.572;23.426;2022-08-19T06:48:44;71235.38;;;-146.70;53.94
7474;BME280;3778;42.572;23.426;2022-08-19T06:51:10;71218.81;;;-146.70;53.71
7474;BME280;3778;42.572;23.426;2022-08-19T06:53:40;71200.16;;;-146.70;53.21
7474;BME280;3778;42.572;23.426;2022-08-19T06:56:13;71189.81;;;-146.70;52.77
7474;BME280;3778;42.572;23.426;2022-08-19T06:58:40;71179.44;;;-146.70;52.92
7474;BME280;3778;42.572;23.426;2022-08-19T07:01:09;71179.44;;;-146.70;52.20
7474;BME280;3778;42.572;23.426;2022-08-19T07:03:37;71164.94;;;-146.70;52.40
7474;BME280;3778;42.572;23.426;2022-08-19T07:06:05;71150.44;;;-146.70;51.88
7474;BME280;3778;42.572;23.426;2022-08-19T07:08:32;71152.50;;;-146.70;52.18
7474;BME280;3778;42.572;23.426;2022-08-19T07:11:05;71133.88;;;-146.70;51.49
7474;BME280;3778;42.572;23.426;2022-08-19T07:13:32;71129.72;;;-146.70;50.88
7474;BME280;3778;42.572;23.426;2022-08-19T07:16:25;71113.16;;;-146.70;50.54
7474;BME280;3778;42.572;23.426;2022-08-19T07:18:53;71098.66;;;-146.70;50.29
7474;BME280;3778;42.572;23.426;2022-08-19T07:21:23;71088.28;;;-146.70;50.47
7474;BME280;3778;42.572;23.426;2022-08-19T07:23:51;71080.00;;;-146.70;49.70
7474;BME280;3778;42.572;23.426;2022-08-19T07:26:21;71061.34;;;-146.70;49.55
7474;BME280;3778;42.572;23.426;2022-08-19T07:28:48;71051.00;;;-146.70;49.58
7474;BME280;3778;42.572;23.426;2022-08-19T07:31:18;71032.34;;;-146.70;49.04
7474;BME280;3778;42.572;23.426;2022-08-19T07:33:48;71019.91;;;-146.70;49.30
7474;BME280;3778;42.572;23.426;2022-08-19T07:36:17;70982.63;;;-146.70;46.88
7474;BME280;3778;42.572;23.426;2022-08-19T07:38:46;70972.25;;;-146.70;46.99
7474;BME280;3778;42.572;23.426;2022-08-19T07:41:16;70941.19;;;-146.70;45.98
7474;BME280;3778;42.572;23.426;2022-08-19T07:43:43;70932.91;;;-146.70;45.96
7474;BME280;3778;42.572;23.426;2022-08-19T07:46:11;70924.63;;;-146.70;44.57
7474;BME280;3778;42.572;23.426;2022-08-19T07:48:41;70912.19;;;-146.70;44.78
7474;BME280;3778;42.572;23.426;2022-08-19T07:51:10;70908.03;;;-146.70;43.31
7474;BME280;3778;42.572;23.426;2022-08-19T07:53:38;70903.91;;;-146.70;44.55
7474;BME280;3778;42.572;23.426;2022-08-19T07:56:05;70893.53;;;-146.70;42.31
7474;BME280;3778;42.572;23.426;2022-08-19T07:58:34;70881.09;;;-146.70;43.66
7474;BME280;3778;42.572;23.426;2022-08-19T08:01:03;70872.81;;;-146.70;42.13
7474;BME280;3778;42.572;23.426;2022-08-19T08:03:30;70854.19;;;-146.70;42.87
7474;BME280;3778;42.572;23.426;2022-08-19T08:06:16;70845.88;;;-146.70;42.17
7474;BME280;3778;42.572;23.426;2022-08-19T08:09:01;70831.38;;;-146.70;42.29
7474;BME280;3778;42.572;23.426;2022-08-19T08:11:37;70825.19;;;-146.70;43.11
7474;BME280;3778;42.572;23.426;2022-08-19T08:14:04;70812.75;;;-146.70;41.44
7474;BME280;3778;42.572;23.426;2022-08-19T08:16:34;70796.16;;;-146.70;41.76
7474;BME280;3778;42.572;23.426;2022-08-19T08:19:02;70771.31;;;-146.70;40.68
7474;BME280;3778;42.572;23.426;2022-08-19T08:21:32;70758.88;;;-146.70;40.69
7474;BME280;3778;42.572;23.426;2022-08-19T08:23:59;70760.94;;;-146.70;40.24
7474;BME280;3778;42.572;23.426;2022-08-19T08:26:26;70740.25;;;-146.70;39.07
7474;BME280;3778;42.572;23.426;2022-08-19T08:28:52;70742.31;;;-146.70;39.06
7474;BME280;3778;42.572;23.426;2022-08-19T08:31:19;70734.03;;;-146.70;40.40
7474;BME280;3778;42.572;23.426;2022-08-19T08:33:47;70713.31;;;-146.70;37.87
7474;BME280;3778;42.572;23.426;2022-08-19T08:36:14;70696.72;;;-146.70;38.00
7474;BME280;3778;42.572;23.426;2022-08-19T08:38:43;70705.03;;;-146.70;38.34
7474;BME280;3778;42.572;23.426;2022-08-19T08:41:18;70690.53;;;-146.70;38.58
7474;BME280;3778;42.572;23.426;2022-08-19T08:43:50;70680.16;;;-146.70;37.64
7474;BME280;3778;42.572;23.426;2022-08-19T08:46:21;70661.50;;;-146.70;36.48
7474;BME280;3778;42.572;23.426;2022-08-19T08:48:53;70657.38;;;-146.70;36.72
7474;BME280;3778;42.572;23.426;2022-08-19T08:51:24;70661.50;;;-146.70;37.58
7474;BME280;3778;42.572;23.426;2022-08-19T08:53:55;70640.81;;;-146.70;37.37
7474;BME280;3778;42.572;23.426;2022-08-19T08:56:22;70622.16;;;-146.70;37.41
7474;BME280;3778;42.572;23.426;2022-08-19T08:58:56;70599.38;;;-146.70;36.17
7474;BME280;3778;42.572;23.426;2022-08-19T09:01:25;70593.16;;;-146.70;36.19
7474;BME280;3778;42.572;23.426;2022-08-19T09:03:53;70582.81;;;-146.70;35.48
7474;BME280;3778;42.572;23.426;2022-08-19T09:06:28;70586.94;;;-146.70;36.36
7474;BME280;3778;42.572;23.426;2022-08-19T09:09:03;70580.72;;;-146.70;35.20
7474;BME280;3778;42.572;23.426;2022-08-19T09:11:42;70560.00;;;-146.70;35.29
7474;BME280;3778;42.572;23.426;2022-08-19T09:14:22;70562.09;;;-146.70;35.26
7474;BME280;3778;42.572;23.426;2022-08-19T09:16:53;70551.72;;;-146.70;34.87
7474;BME280;3778;42.572;23.426;2022-08-19T09:19:20;70553.78;;;-146.70;34.59
7474;BME280;3778;42.572;23.426;2022-08-19T09:21:47;70516.50;;;-146.70;35.50
7474;BME280;3778;42.572;23.426;2022-08-19T09:24:16;70497.88;;;-146.70;35.06
7474;BME280;3778;42.572;23.426;2022-08-19T09:26:43;70483.38;;;-146.70;34.27
7474;BME280;3778;42.572;23.426;2022-08-19T09:29:11;70481.28;;;-146.70;33.75
7474;BME280;3778;42.572;23.426;2022-08-19T09:31:37;70483.38;;;-146.70;34.16
7474;BME280;3778;42.572;23.426;2022-08-19T09:34:04;70473.00;;;-146.70;33.00
7474;BME280;3778;42.572;23.426;2022-08-19T09:36:32;70466.78;;;-146.70;34.02
7474;BME280;3778;42.572;23.426;2022-08-19T09:39:02;70479.22;;;-146.70;33.13
7474;BME280;3778;42.572;23.426;2022-08-19T09:41:31;70483.38;;;-146.70;33.18
7474;BME280;3778;42.572;23.426;2022-08-19T09:43:58;70495.78;;;-146.70;33.23
7474;BME280;3778;42.572;23.426;2022-08-19T09:46:27;70485.44;;;-146.70;33.57
7474;BME280;3778;42.572;23.426;2022-08-19T09:48:57;70489.56;;;-146.70;32.73
7474;BME280;3778;42.572;23.426;2022-08-19T09:51:26;70487.50;;;-146.70;33.16
7474;BME280;3778;42.572;23.426;2022-08-19T09:53:58;70481.28;;;-146.70;33.11
7474;BME280;3778;42.572;23.426;2022-08-19T09:56:25;70466.78;;;-146.70;33.32
7474;BME280;3778;42.572;23.426;2022-08-19T09:58:53;70439.88;;;-146.70;33.11
7474;BME280;3778;42.572;23.426;2022-08-19T10:01:23;70429.50;;;-146.70;33.29
7474;BME280;3778;42.572;23.426;2022-08-19T10:03:51;70423.28;;;-146.70;33.20
7474;BME280;3778;42.572;23.426;2022-08-19T10:06:20;70398.44;;;-146.70;33.26
7474;BME280;3778;42.572;23.426;2022-08-19T10:08:47;70377.72;;;-146.70;32.90
7474;BME280;3778;42.572;23.426;2022-08-19T10:11:14;70354.94;;;-146.70;32.52
7474;BME280;3778;42.572;23.426;2022-08-19T10:13:43;70338.38;;;-146.70;31.34
7474;BME280;3778;42.572;23.426;2022-08-19T10:16:14;70338.38;;;-146.70;31.33
7474;BME280;3778;42.572;23.426;2022-08-19T10:18:43;70346.66;;;-146.70;31.33
7474;BME280;3778;42.572;23.426;2022-08-19T10:21:14;70348.72;;;-146.70;31.93
7474;BME280;3778;42.572;23.426;2022-08-19T10:23:42;70336.28;;;-146.70;30.71
7474;BME280;3778;42.572;23.426;2022-08-19T10:26:12;70330.06;;;-146.70;31.03
7474;BME280;3778;42.572;23.426;2022-08-19T10:28:39;70315.59;;;-146.70;31.53
7474;BME280;3778;42.572;23.426;2022-08-19T10:31:08;70286.56;;;-146.70;31.39
7474;BME280;3778;42.572;23.426;2022-08-19T10:33:37;70284.50;;;-146.70;30.34
7474;BME280;3778;42.572;23.426;2022-08-19T10:36:08;70280.38;;;-146.70;30.57
7474;BME280;3778;42.572;23.426;2022-08-19T10:38:35;70265.88;;;-146.70;30.01
7474;BME280;3778;42.572;23.426;2022-08-19T10:41:11;70261.72;;;-146.70;30.04
7474;BME280;3778;42.572;23.426;2022-08-19T10:43:38;70251.38;;;-146.70;31.50
7474;BME280;3778;42.572;23.426;2022-08-19T10:46:06;70249.28;;;-146.70;30.59
7474;BME280;3778;42.572;23.426;2022-08-19T10:48:33;70238.94;;;-146.70;30.89
7474;BME280;3778;42.572;23.426;2022-08-19T10:51:02;70243.09;;;-146.70;30.08
7474;BME280;3778;42.572;23.426;2022-08-19T10:53:46;70236.88;;;-146.70;30.48
7474;BME280;3778;42.572;23.426;2022-08-19T10:56:14;70228.59;;;-146.70;30.07
7474;BME280;3778;42.572;23.426;2022-08-19T10:58:58;70199.59;;;-146.70;30.50
7474;BME280;3778;42.572;23.426;2022-08-19T11:01:25;70185.09;;;-146.70;30.35
7474;BME280;3778;42.572;23.426;2022-08-19T11:03:52;70168.50;;;-146.70;29.59
7474;BME280;3778;42.572;23.426;2022-08-19T11:06:20;70185.09;;;-146.70;29.90
7474;BME280;3778;42.572;23.426;2022-08-19T11:08:47;70172.66;;;-146.70;30.17
7474;BME280;3778;42.572;23.426;2022-08-19T11:11:14;70180.94;;;-146.70;30.28
7474;BME280;3778;42.572;23.426;2022-08-19T11:13:41;70189.22;;;-146.70;30.35
7474;BME280;3778;42.572;23.426;2022-08-19T11:16:11;70170.59;;;-146.70;30.17
7474;BME280;3778;42.572;23.426;2022-08-19T11:18:41;70145.72;;;-146.70;31.44
7474;BME280;3778;42.572;23.426;2022-08-19T11:21:11;70145.72;;;-146.70;29.59
7474;BME280;3778;42.572;23.426;2022-08-19T11:23:40;70149.88;;;-146.70;29.42
7474;BME280;3778;42.572;23.426;2022-08-19T11:26:07;70170.59;;;-146.70;29.81
7474;BME280;3778;42.572;23.426;2022-08-19T11:28:34;70151.94;;;-146.70;30.35
7474;BME280;3778;42.572;23.426;2022-08-19T11:31:01;70143.66;;;-146.70;29.63
7474;BME280;3778;42.572;23.426;2022-08-19T11:33:28;70147.81;;;-146.70;29.21
7474;BME280;3778;42.572;23.426;2022-08-19T11:35:57;70149.88;;;-146.70;29.53
7474;BME280;3778;42.572;23.426;2022-08-19T11:38:24;70135.38;;;-146.70;29.59
7474;BME280;3778;42.572;23.426;2022-08-19T11:40:56;70131.22;;;-146.70;30.03
7474;BME280;3778;42.572;23.426;2022-08-19T11:43:22;70118.81;;;-146.70;29.06
7474;BME280;3778;42.572;23.426;2022-08-19T11:45:49;70108.44;;;-146.70;29.43
7474;BME280;3778;42.572;23.426;2022-08-19T11:48:16;70114.66;;;-146.70;29.34
7474;BME280;3778;42.572;23.426;2022-08-19T11:50:47;70089.81;;;-146.70;29.29
7474;BME280;3778;42.572;23.426;2022-08-19T11:53:14;70091.88;;;-146.70;29.76
7474;BME280;3778;42.572;23.426;2022-08-19T11:55:41;70064.94;;;-146.70;28.90
7474;BME280;3778;42.572;23.426;2022-08-19T11:58:11;70067.03;;;-146.70;28.68
7474;BME280;3778;42.572;23.426;2022-08-19T12:00:38;70064.94;;;-146.70;28.93
7474;BME280;3778;42.572;23.426;2022-08-19T12:03:05;70060.81;;;-146.70;28.72
7474;BME280;3778;42.572;23.426;2022-08-19T12:05:32;70062.88;;;-146.70;29.02
7474;BME280;3778;42.572;23.426;2022-08-19T12:07:59;70064.94;;;-146.70;28.92
7474;BME280;3778;42.572;23.426;2022-08-19T12:10:26;70038.03;;;-146.70;28.32
7474;BME280;3778;42.572;23.426;2022-08-19T12:12:52;70027.66;;;-146.70;29.23
7474;BME280;3778;42.572;23.426;2022-08-19T12:15:20;70023.53;;;-146.70;29.45
7474;BME280;3778;42.572;23.426;2022-08-19T12:17:47;70004.88;;;-146.70;28.76
7474;BME280;3778;42.572;23.426;2022-08-19T12:20:14;70029.75;;;-146.70;28.31
7474;BME280;3778;42.572;23.426;2022-08-19T12:22:42;70023.53;;;-146.70;29.03
7474;BME280;3778;42.572;23.426;2022-08-19T12:25:11;70009.03;;;-146.70;29.28
7474;BME280;3778;42.572;23.426;2022-08-19T12:27:38;69994.53;;;-146.70;29.07
7474;BME280;3778;42.572;23.426;2022-08-19T12:30:08;69986.25;;;-146.70;29.59
7474;BME280;3778;42.572;23.426;2022-08-19T12:32:37;69986.25;;;-146.70;29.09
7474;BME280;3778;42.572;23.426;2022-08-19T12:35:05;69957.25;;;-146.70;28.75
7474;BME280;3778;42.572;23.426;2022-08-19T12:37:33;69984.16;;;-146.70;28.93
7474;BME280;3778;42.572;23.426;2022-08-19T12:40:00;69973.81;;;-146.70;28.45
7474;BME280;3778;42.572;23.426;2022-08-19T12:42:28;69969.66;;;-146.70;28.63
7474;BME280;3778;42.572;23.426;2022-08-19T12:44:55;69953.09;;;-146.70;28.08
7474;BME280;3778;42.572;23.426;2022-08-19T12:47:22;69946.88;;;-146.70;27.99
7474;BME280;3778;42.572;23.426;2022-08-19T12:49:50;69928.25;;;-146.70;28.02
7474;BME280;3778;42.572;23.426;2022-08-19T12:52:17;69940.69;;;-146.70;27.77
7474;BME280;3778;42.572;23.426;2022-08-19T12:54:46;69926.19;;;-146.70;28.40
7474;BME280;3778;42.572;23.426;2022-08-19T12:57:13;69917.91;;;-146.70;28.29
7474;BME280;3778;42.572;23.426;2022-08-19T12:59:40;69928.25;;;-146.70;28.24